sensor_id;sensor_type;location;lat;lon;timestamp;P1;durP1;ratioP1;P2;durP2;ratioP2
16892;SDS011;8563;52.242;9.098;2023-11-19T00:00:33;1.70;;;1.60;;
16892;SDS011;8563;52.242;9.098;2023-11-19T00:03:07;1.50;;;1.40;;
16892;SDS011;8563;52.242;9.098;2023-11-19T00:05:41;2.17;;;1.90;;
16892;SDS011;8563;52.242;9.098;2023-11-19T00:08:14;1.40;;;1.30;;
16892;SDS011;8563;52.242;9.098;2023-11-19T00:10:47;1.70;;;1.57;;
16892;SDS011;8563;52.242;9.098;2023-11-19T00:13:19;1.30;;;1.13;;
16892;SDS011;8563;52.242;9.098;2023-11-19T00:15:53;2.17;;;1.47;;
16892;SDS011;8563;52.242;9.098;2023-11-19T00:18:28;2.73;;;1.47;;
16892;SDS011;8563;52.242;9.098;2023-11-19T00:21:00;1.53;;;1.43;;
16892;SDS011;8563;52.242;9.098;2023-11-19T00:23:33;1.33;;;1.23;;
16892;SDS011;8563;52.242;9.098;2023-11-19T00:26:05;1.57;;;1.47;;
16892;SDS011;8563;52.242;9.098;2023-11-19T00:28:38;2.10;;;1.30;;
16892;SDS011;8563;52.242;9.098;2023-11-19T00:31:10;1.43;;;1.33;;
16892;SDS011;8563;52.242;9.098;2023-11-19T00:33:44;2.60;;;1.67;;
16892;SDS011;8563;52.242;9.098;2023-11-19T00:36:17;1.70;;;1.60;;
16892;SDS011;8563;52.242;9.098;2023-11-19T00:38:49;2.10;;;1.90;;
16892;SDS011;8563;52.242;9.098;2023-11-19T00:41:23;1.60;;;1.50;;
16892;SDS011;8563;52.242;9.098;2023-11-19T00:43:55;1.40;;;1.30;;
16892;SDS011;8563;52.242;9.098;2023-11-19T00:46:28;1.57;;;1.47;;
16892;SDS011;8563;52.242;9.098;2023-11-19T00:49:03;1.77;;;1.67;;
16892;SDS011;8563;52.242;9.098;2023-11-19T00:51:35;2.43;;;1.43;;
16892;SDS011;8563;52.242;9.098;2023-11-19T00:54:08;1.40;;;1.30;;
16892;SDS011;8563;52.242;9.098;2023-11-19T00:56:40;1.80;;;1.50;;
16892;SDS011;8563;52.242;9.098;2023-11-19T00:59:12;1.40;;;1.30;;
16892;SDS011;8563;52.242;9.098;2023-11-19T01:01:45;2.40;;;1.43;;
16892;SDS011;8563;52.242;9.098;2023-11-19T01:04:20;1.97;;;1.53;;
16892;SDS011;8563;52.242;9.098;2023-11-19T01:06:52;2.07;;;1.37;;
16892;SDS011;8563;52.242;9.098;2023-11-19T01:09:25;2.27;;;1.67;;
16892;SDS011;8563;52.242;9.098;2023-11-19T01:11:57;1.57;;;1.47;;
16892;SDS011;8563;52.242;9.098;2023-11-19T01:14:31;1.80;;;1.40;;
16892;SDS011;8563;52.242;9.098;2023-11-19T01:17:03;1.57;;;1.47;;
16892;SDS011;8563;52.242;9.098;2023-11-19T01:19:37;1.43;;;1.07;;
16892;SDS011;8563;52.242;9.098;2023-11-19T01:22:10;2.80;;;1.27;;
16892;SDS011;8563;52.242;9.098;2023-11-19T01:24:42;1.43;;;1.27;;
16892;SDS011;8563;52.242;9.098;2023-11-19T01:27:14;1.07;;;0.83;;
16892;SDS011;8563;52.242;9.098;2023-11-19T01:29:46;0.70;;;0.67;;
16892;SDS011;8563;52.242;9.098;2023-11-19T01:32:19;0.73;;;0.73;;
16892;SDS011;8563;52.242;9.098;2023-11-19T01:34:53;1.03;;;0.93;;
16892;SDS011;8563;52.242;9.098;2023-11-19T01:37:25;1.00;;;0.90;;
16892;SDS011;8563;52.242;9.098;2023-11-19T01:39:57;1.00;;;0.80;;
16892;SDS011;8563;52.242;9.098;2023-11-19T01:42:30;1.70;;;0.73;;
16892;SDS011;8563;52.242;9.098;2023-11-19T01:45:07;1.30;;;0.80;;
16892;SDS011;8563;52.242;9.098;2023-11-19T01:47:40;1.53;;;0.80;;
16892;SDS011;8563;52.242;9.098;2023-11-19T01:50:14;2.63;;;0.63;;
16892;SDS011;8563;52.242;9.098;2023-11-19T01:52:46;0.70;;;0.70;;
16892;SDS011;8563;52.242;9.098;2023-11-19T01:55:19;1.17;;;0.73;;
16892;SDS011;8563;52.242;9.098;2023-11-19T01:57:53;0.60;;;0.60;;
16892;SDS011;8563;52.242;9.098;2023-11-19T02:00:26;1.20;;;0.70;;
16892;SDS011;8563;52.242;9.098;2023-11-19T02:02:58;0.70;;;0.70;;
16892;SDS011;8563;52.242;9.098;2023-11-19T02:05:32;0.70;;;0.70;;
16892;SDS011;8563;52.242;9.098;2023-11-19T02:08:05;0.70;;;0.70;;
16892;SDS011;8563;52.242;9.098;2023-11-19T02:10:37;1.13;;;0.80;;
16892;SDS011;8563;52.242;9.098;2023-11-19T02:13:11;0.80;;;0.80;;
16892;SDS011;8563;52.242;9.098;2023-11-19T02:15:44;1.03;;;0.90;;
16892;SDS011;8563;52.242;9.098;2023-11-19T02:18:18;1.10;;;1.00;;
16892;SDS011;8563;52.242;9.098;2023-11-19T02:20:51;1.63;;;1.40;;
16892;SDS011;8563;52.242;9.098;2023-11-19T02:23:25;1.40;;;1.30;;
16892;SDS011;8563;52.242;9.098;2023-11-19T02:26:00;2.07;;;1.90;;
16892;SDS011;8563;52.242;9.098;2023-11-19T02:28:37;2.50;;;2.10;;
16892;SDS011;8563;52.242;9.098;2023-11-19T02:31:09;2.30;;;2.10;;
16892;SDS011;8563;52.242;9.098;2023-11-19T02:33:41;2.70;;;2.00;;
16892;SDS011;8563;52.242;9.098;2023-11-19T02:36:14;2.30;;;2.10;;
16892;SDS011;8563;52.242;9.098;2023-11-19T02:38:47;2.93;;;2.60;;
16892;SDS011;8563;52.242;9.098;2023-11-19T02:41:19;2.73;;;2.50;;
16892;SDS011;8563;52.242;9.098;2023-11-19T02:43:53;3.20;;;2.87;;
16892;SDS011;8563;52.242;9.098;2023-11-19T02:46:26;3.03;;;2.60;;
16892;SDS011;8563;52.242;9.098;2023-11-19T02:48:58;3.50;;;2.50;;
16892;SDS011;8563;52.242;9.098;2023-11-19T02:51:30;4.13;;;2.20;;
16892;SDS011;8563;52.242;9.098;2023-11-19T02:54:05;3.13;;;2.77;;
16892;SDS011;8563;52.242;9.098;2023-11-19T02:56:37;3.30;;;3.03;;
16892;SDS011;8563;52.242;9.098;2023-11-19T02:59:11;3.10;;;2.80;;
16892;SDS011;8563;52.242;9.098;2023-11-19T03:01:57;2.57;;;2.37;;
16892;SDS011;8563;52.242;9.098;2023-11-19T03:04:30;2.93;;;2.73;;
16892;SDS011;8563;52.242;9.098;2023-11-19T03:07:02;3.00;;;2.80;;
16892;SDS011;8563;52.242;9.098;2023-11-19T03:09:34;3.20;;;2.90;;
16892;SDS011;8563;52.242;9.098;2023-11-19T03:12:09;3.27;;;2.97;;
16892;SDS011;8563;52.242;9.098;2023-11-19T03:14:42;3.43;;;3.10;;
16892;SDS011;8563;52.242;9.098;2023-11-19T03:17:18;3.43;;;3.13;;
16892;SDS011;8563;52.242;9.098;2023-11-19T03:19:50;3.67;;;3.17;;
16892;SDS011;8563;52.242;9.098;2023-11-19T03:22:22;3.80;;;3.50;;
16892;SDS011;8563;52.242;9.098;2023-11-19T03:24:55;6.20;;;3.97;;
16892;SDS011;8563;52.242;9.098;2023-11-19T03:27:27;4.00;;;3.70;;
16892;SDS011;8563;52.242;9.098;2023-11-19T03:30:01;4.67;;;3.80;;
16892;SDS011;8563;52.242;9.098;2023-11-19T03:32:34;4.40;;;3.50;;
16892;SDS011;8563;52.242;9.098;2023-11-19T03:35:07;5.37;;;4.37;;
16892;SDS011;8563;52.242;9.098;2023-11-19T03:37:39;6.80;;;6.07;;
16892;SDS011;8563;52.242;9.098;2023-11-19T03:40:12;8.77;;;5.97;;
16892;SDS011;8563;52.242;9.098;2023-11-19T03:42:45;6.60;;;6.00;;
16892;SDS011;8563;52.242;9.098;2023-11-19T03:45:19;6.97;;;6.27;;
16892;SDS011;8563;52.242;9.098;2023-11-19T03:47:52;8.40;;;7.53;;
16892;SDS011;8563;52.242;9.098;2023-11-19T03:50:24;14.30;;;9.43;;
16892;SDS011;8563;52.242;9.098;2023-11-19T03:52:57;10.73;;;8.70;;
16892;SDS011;8563;52.242;9.098;2023-11-19T03:55:29;9.10;;;8.20;;
16892;SDS011;8563;52.242;9.098;2023-11-19T03:58:01;11.90;;;9.13;;
16892;SDS011;8563;52.242;9.098;2023-11-19T04:00:35;11.27;;;9.93;;
16892;SDS011;8563;52.242;9.098;2023-11-19T04:03:07;11.33;;;10.13;;
16892;SDS011;8563;52.242;9.098;2023-11-19T04:05:41;12.40;;;11.10;;
16892;SDS011;8563;52.242;9.098;2023-11-19T04:08:14;12.77;;;10.47;;
16892;SDS011;8563;52.242;9.098;2023-11-19T04:10:46;12.57;;;10.90;;
16892;SDS011;8563;52.242;9.098;2023-11-19T04:13:19;13.57;;;11.30;;
16892;SDS011;8563;52.242;9.098;2023-11-19T04:15:53;11.53;;;10.37;;
16892;SDS011;8563;52.242;9.098;2023-11-19T04:18:26;12.63;;;10.90;;
16892;SDS011;8563;52.242;9.098;2023-11-19T04:20:58;13.63;;;11.03;;
16892;SDS011;8563;52.242;9.098;2023-11-19T04:23:30;18.23;;;11.97;;
16892;SDS011;8563;52.242;9.098;2023-11-19T04:26:03;15.87;;;11.40;;
16892;SDS011;8563;52.242;9.098;2023-11-19T04:28:37;14.57;;;11.90;;
16892;SDS011;8563;52.242;9.098;2023-11-19T04:31:10;15.87;;;11.30;;
16892;SDS011;8563;52.242;9.098;2023-11-19T04:33:43;13.83;;;12.30;;
16892;SDS011;8563;52.242;9.098;2023-11-19T04:36:18;13.63;;;11.53;;
16892;SDS011;8563;52.242;9.098;2023-11-19T04:38:51;12.83;;;11.37;;
16892;SDS011;8563;52.242;9.098;2023-11-19T04:41:23;18.63;;;12.27;;
16892;SDS011;8563;52.242;9.098;2023-11-19T04:43:55;13.80;;;11.40;;
16892;SDS011;8563;52.242;9.098;2023-11-19T04:46:29;16.13;;;11.67;;
16892;SDS011;8563;52.242;9.098;2023-11-19T04:49:02;17.47;;;11.50;;
16892;SDS011;8563;52.242;9.098;2023-11-19T04:51:37;14.10;;;12.03;;
16892;SDS011;8563;52.242;9.098;2023-11-19T04:54:10;14.27;;;11.20;;
16892;SDS011;8563;52.242;9.098;2023-11-19T04:56:44;18.30;;;10.40;;
16892;SDS011;8563;52.242;9.098;2023-11-19T04:59:17;12.60;;;11.40;;
16892;SDS011;8563;52.242;9.098;2023-11-19T05:01:51;11.53;;;10.33;;
16892;SDS011;8563;52.242;9.098;2023-11-19T05:04:23;16.30;;;12.00;;
16892;SDS011;8563;52.242;9.098;2023-11-19T05:06:56;14.07;;;10.93;;
16892;SDS011;8563;52.242;9.098;2023-11-19T05:09:28;14.07;;;11.73;;
16892;SDS011;8563;52.242;9.098;2023-11-19T05:12:00;13.77;;;11.60;;
16892;SDS011;8563;52.242;9.098;2023-11-19T05:14:33;12.97;;;11.67;;
16892;SDS011;8563;52.242;9.098;2023-11-19T05:17:06;19.30;;;11.73;;
16892;SDS011;8563;52.242;9.098;2023-11-19T05:19:39;16.67;;;10.83;;
16892;SDS011;8563;52.242;9.098;2023-11-19T05:22:11;15.27;;;11.23;;
16892;SDS011;8563;52.242;9.098;2023-11-19T05:24:44;15.93;;;10.13;;
16892;SDS011;8563;52.242;9.098;2023-11-19T05:27:16;15.53;;;10.07;;
16892;SDS011;8563;52.242;9.098;2023-11-19T05:29:49;18.03;;;9.93;;
16892;SDS011;8563;52.242;9.098;2023-11-19T05:32:22;15.50;;;9.57;;
16892;SDS011;8563;52.242;9.098;2023-11-19T05:34:55;16.00;;;9.43;;
16892;SDS011;8563;52.242;9.098;2023-11-19T05:37:27;15.13;;;9.60;;
16892;SDS011;8563;52.242;9.098;2023-11-19T05:40:00;19.13;;;9.00;;
16892;SDS011;8563;52.242;9.098;2023-11-19T05:42:34;12.07;;;8.63;;
16892;SDS011;8563;52.242;9.098;2023-11-19T05:45:07;12.03;;;8.10;;
16892;SDS011;8563;52.242;9.098;2023-11-19T05:47:41;13.60;;;9.20;;
16892;SDS011;8563;52.242;9.098;2023-11-19T05:50:14;12.30;;;8.70;;
16892;SDS011;8563;52.242;9.098;2023-11-19T05:52:46;14.80;;;8.00;;
16892;SDS011;8563;52.242;9.098;2023-11-19T05:55:18;14.57;;;7.57;;
16892;SDS011;8563;52.242;9.098;2023-11-19T05:57:51;14.13;;;7.43;;
16892;SDS011;8563;52.242;9.098;2023-11-19T06:00:23;16.83;;;7.40;;
16892;SDS011;8563;52.242;9.098;2023-11-19T06:02:59;11.60;;;5.73;;
16892;SDS011;8563;52.242;9.098;2023-11-19T06:05:31;10.43;;;5.10;;
16892;SDS011;8563;52.242;9.098;2023-11-19T06:08:03;18.90;;;5.60;;
16892;SDS011;8563;52.242;9.098;2023-11-19T06:10:38;14.00;;;5.70;;
16892;SDS011;8563;52.242;9.098;2023-11-19T06:13:10;16.13;;;5.23;;
16892;SDS011;8563;52.242;9.098;2023-11-19T06:15:45;16.93;;;4.73;;
16892;SDS011;8563;52.242;9.098;2023-11-19T06:18:19;16.23;;;4.33;;
16892;SDS011;8563;52.242;9.098;2023-11-19T06:20:51;18.83;;;4.73;;
16892;SDS011;8563;52.242;9.098;2023-11-19T06:23:23;17.10;;;5.07;;
16892;SDS011;8563;52.242;9.098;2023-11-19T06:25:56;18.07;;;4.30;;
16892;SDS011;8563;52.242;9.098;2023-11-19T06:28:28;19.07;;;4.77;;
16892;SDS011;8563;52.242;9.098;2023-11-19T06:31:01;13.57;;;3.13;;
16892;SDS011;8563;52.242;9.098;2023-11-19T06:33:35;12.73;;;4.00;;
16892;SDS011;8563;52.242;9.098;2023-11-19T06:36:08;17.47;;;3.97;;
16892;SDS011;8563;52.242;9.098;2023-11-19T06:38:40;17.30;;;3.80;;
16892;SDS011;8563;52.242;9.098;2023-11-19T06:41:13;16.20;;;3.57;;
16892;SDS011;8563;52.242;9.098;2023-11-19T06:43:45;20.07;;;4.50;;
16892;SDS011;8563;52.242;9.098;2023-11-19T06:46:18;23.47;;;4.27;;
16892;SDS011;8563;52.242;9.098;2023-11-19T06:48:52;16.47;;;3.77;;
16892;SDS011;8563;52.242;9.098;2023-11-19T06:51:24;16.53;;;3.40;;
16892;SDS011;8563;52.242;9.098;2023-11-19T06:53:57;18.40;;;4.40;;
16892;SDS011;8563;52.242;9.098;2023-11-19T06:56:29;17.90;;;4.47;;
16892;SDS011;8563;52.242;9.098;2023-11-19T06:59:02;14.87;;;3.93;;
16892;SDS011;8563;52.242;9.098;2023-11-19T07:01:34;16.67;;;4.23;;
16892;SDS011;8563;52.242;9.098;2023-11-19T07:04:08;18.10;;;4.10;;
16892;SDS011;8563;52.242;9.098;2023-11-19T07:06:42;18.43;;;4.13;;
16892;SDS011;8563;52.242;9.098;2023-11-19T07:09:15;17.53;;;4.70;;
16892;SDS011;8563;52.242;9.098;2023-11-19T07:11:49;20.97;;;4.67;;
16892;SDS011;8563;52.242;9.098;2023-11-19T07:14:22;18.87;;;4.77;;
16892;SDS011;8563;52.242;9.098;2023-11-19T07:16:54;15.70;;;4.00;;
16892;SDS011;8563;52.242;9.098;2023-11-19T07:19:28;18.13;;;4.20;;
16892;SDS011;8563;52.242;9.098;2023-11-19T07:22:00;17.50;;;3.77;;
16892;SDS011;8563;52.242;9.098;2023-11-19T07:24:33;18.03;;;3.93;;
16892;SDS011;8563;52.242;9.098;2023-11-19T07:27:05;16.37;;;4.20;;
16892;SDS011;8563;52.242;9.098;2023-11-19T07:29:39;18.53;;;4.60;;
16892;SDS011;8563;52.242;9.098;2023-11-19T07:32:11;23.03;;;5.40;;
16892;SDS011;8563;52.242;9.098;2023-11-19T07:34:45;19.27;;;4.93;;
16892;SDS011;8563;52.242;9.098;2023-11-19T07:37:17;18.83;;;4.23;;
16892;SDS011;8563;52.242;9.098;2023-11-19T07:39:50;19.63;;;4.33;;
16892;SDS011;8563;52.242;9.098;2023-11-19T07:42:22;21.70;;;4.43;;
16892;SDS011;8563;52.242;9.098;2023-11-19T07:44:55;20.73;;;4.87;;
16892;SDS011;8563;52.242;9.098;2023-11-19T07:47:27;20.87;;;4.87;;
16892;SDS011;8563;52.242;9.098;2023-11-19T07:50:01;18.70;;;4.80;;
16892;SDS011;8563;52.242;9.098;2023-11-19T07:52:33;19.30;;;4.30;;
16892;SDS011;8563;52.242;9.098;2023-11-19T07:55:06;21.97;;;5.43;;
16892;SDS011;8563;52.242;9.098;2023-11-19T07:57:39;19.10;;;4.33;;
16892;SDS011;8563;52.242;9.098;2023-11-19T08:00:12;22.37;;;4.83;;
16892;SDS011;8563;52.242;9.098;2023-11-19T08:02:44;21.67;;;5.03;;
16892;SDS011;8563;52.242;9.098;2023-11-19T08:05:18;19.67;;;4.43;;
16892;SDS011;8563;52.242;9.098;2023-11-19T08:07:51;17.43;;;4.50;;
16892;SDS011;8563;52.242;9.098;2023-11-19T08:10:23;19.87;;;4.83;;
16892;SDS011;8563;52.242;9.098;2023-11-19T08:12:55;24.83;;;5.00;;
16892;SDS011;8563;52.242;9.098;2023-11-19T08:15:28;18.00;;;4.40;;
16892;SDS011;8563;52.242;9.098;2023-11-19T08:18:00;16.50;;;4.70;;
16892;SDS011;8563;52.242;9.098;2023-11-19T08:20:34;20.73;;;4.63;;
16892;SDS011;8563;52.242;9.098;2023-11-19T08:23:06;24.73;;;5.53;;
16892;SDS011;8563;52.242;9.098;2023-11-19T08:25:39;23.10;;;5.27;;
16892;SDS011;8563;52.242;9.098;2023-11-19T08:28:11;27.70;;;5.50;;
16892;SDS011;8563;52.242;9.098;2023-11-19T08:30:43;21.43;;;4.67;;
16892;SDS011;8563;52.242;9.098;2023-11-19T08:33:16;24.30;;;5.43;;
16892;SDS011;8563;52.242;9.098;2023-11-19T08:35:49;21.53;;;5.47;;
16892;SDS011;8563;52.242;9.098;2023-11-19T08:38:22;20.70;;;5.57;;
16892;SDS011;8563;52.242;9.098;2023-11-19T08:40:54;22.47;;;5.30;;
16892;SDS011;8563;52.242;9.098;2023-11-19T08:43:29;27.53;;;5.77;;
16892;SDS011;8563;52.242;9.098;2023-11-19T08:46:02;25.20;;;5.93;;
16892;SDS011;8563;52.242;9.098;2023-11-19T08:48:35;24.00;;;4.87;;
16892;SDS011;8563;52.242;9.098;2023-11-19T08:51:08;21.90;;;4.70;;
16892;SDS011;8563;52.242;9.098;2023-11-19T08:53:41;22.63;;;5.33;;
16892;SDS011;8563;52.242;9.098;2023-11-19T08:56:13;20.60;;;5.17;;
16892;SDS011;8563;52.242;9.098;2023-11-19T08:58:45;24.87;;;5.97;;
16892;SDS011;8563;52.242;9.098;2023-11-19T09:01:18;26.93;;;5.40;;
16892;SDS011;8563;52.242;9.098;2023-11-19T09:03:50;23.70;;;5.17;;
16892;SDS011;8563;52.242;9.098;2023-11-19T09:06:24;23.87;;;5.53;;
16892;SDS011;8563;52.242;9.098;2023-11-19T09:08:56;24.97;;;5.20;;
16892;SDS011;8563;52.242;9.098;2023-11-19T09:11:33;26.30;;;4.70;;
16892;SDS011;8563;52.242;9.098;2023-11-19T09:14:05;27.37;;;5.80;;
16892;SDS011;8563;52.242;9.098;2023-11-19T09:16:38;26.17;;;5.23;;
16892;SDS011;8563;52.242;9.098;2023-11-19T09:19:10;22.53;;;4.80;;
16892;SDS011;8563;52.242;9.098;2023-11-19T09:21:44;20.90;;;4.97;;
16892;SDS011;8563;52.242;9.098;2023-11-19T09:24:18;26.00;;;4.67;;
16892;SDS011;8563;52.242;9.098;2023-11-19T09:26:50;17.97;;;4.63;;
16892;SDS011;8563;52.242;9.098;2023-11-19T09:29:25;20.87;;;5.03;;
16892;SDS011;8563;52.242;9.098;2023-11-19T09:31:57;21.93;;;4.80;;
16892;SDS011;8563;52.242;9.098;2023-11-19T09:34:29;23.00;;;5.17;;
16892;SDS011;8563;52.242;9.098;2023-11-19T09:37:03;17.43;;;5.00;;
16892;SDS011;8563;52.242;9.098;2023-11-19T09:39:36;22.97;;;5.37;;
16892;SDS011;8563;52.242;9.098;2023-11-19T09:42:08;25.87;;;4.90;;
16892;SDS011;8563;52.242;9.098;2023-11-19T09:44:41;18.80;;;5.23;;
16892;SDS011;8563;52.242;9.098;2023-11-19T09:47:14;23.07;;;5.20;;
16892;SDS011;8563;52.242;9.098;2023-11-19T09:49:49;23.23;;;5.23;;
16892;SDS011;8563;52.242;9.098;2023-11-19T09:52:23;18.90;;;4.77;;
16892;SDS011;8563;52.242;9.098;2023-11-19T09:54:56;23.03;;;5.07;;
16892;SDS011;8563;52.242;9.098;2023-11-19T09:57:28;16.13;;;4.63;;
16892;SDS011;8563;52.242;9.098;2023-11-19T10:00:02;23.27;;;4.93;;
16892;SDS011;8563;52.242;9.098;2023-11-19T10:02:37;20.57;;;4.93;;
16892;SDS011;8563;52.242;9.098;2023-11-19T10:05:11;23.27;;;4.70;;
16892;SDS011;8563;52.242;9.098;2023-11-19T10:07:46;18.10;;;5.03;;
16892;SDS011;8563;52.242;9.098;2023-11-19T10:10:19;21.80;;;5.30;;
16892;SDS011;8563;52.242;9.098;2023-11-19T10:12:52;18.87;;;4.77;;
16892;SDS011;8563;52.242;9.098;2023-11-19T10:15:24;16.37;;;4.83;;
16892;SDS011;8563;52.242;9.098;2023-11-19T10:17:57;24.63;;;5.03;;
16892;SDS011;8563;52.242;9.098;2023-11-19T10:20:32;22.57;;;5.60;;
16892;SDS011;8563;52.242;9.098;2023-11-19T10:23:08;24.33;;;5.30;;
16892;SDS011;8563;52.242;9.098;2023-11-19T10:25:41;23.47;;;5.57;;
16892;SDS011;8563;52.242;9.098;2023-11-19T10:28:14;22.27;;;5.50;;
16892;SDS011;8563;52.242;9.098;2023-11-19T10:30:48;23.60;;;5.83;;
16892;SDS011;8563;52.242;9.098;2023-11-19T10:33:20;23.03;;;5.47;;
16892;SDS011;8563;52.242;9.098;2023-11-19T10:35:53;16.03;;;4.87;;
16892;SDS011;8563;52.242;9.098;2023-11-19T10:38:28;18.53;;;5.47;;
16892;SDS011;8563;52.242;9.098;2023-11-19T10:41:00;24.30;;;5.50;;
16892;SDS011;8563;52.242;9.098;2023-11-19T10:43:42;27.77;;;8.33;;
16892;SDS011;8563;52.242;9.098;2023-11-19T10:46:15;23.83;;;7.53;;
16892;SDS011;8563;52.242;9.098;2023-11-19T10:48:51;17.90;;;6.67;;
16892;SDS011;8563;52.242;9.098;2023-11-19T10:51:23;24.03;;;5.50;;
16892;SDS011;8563;52.242;9.098;2023-11-19T10:53:57;19.30;;;5.13;;
16892;SDS011;8563;52.242;9.098;2023-11-19T10:56:31;22.93;;;5.13;;
16892;SDS011;8563;52.242;9.098;2023-11-19T10:59:04;18.13;;;4.90;;
16892;SDS011;8563;52.242;9.098;2023-11-19T11:01:39;24.10;;;5.33;;
16892;SDS011;8563;52.242;9.098;2023-11-19T11:04:15;22.00;;;5.27;;
16892;SDS011;8563;52.242;9.098;2023-11-19T11:06:51;26.90;;;5.43;;
16892;SDS011;8563;52.242;9.098;2023-11-19T11:09:27;18.40;;;4.63;;
16892;SDS011;8563;52.242;9.098;2023-11-19T11:11:59;27.53;;;5.70;;
16892;SDS011;8563;52.242;9.098;2023-11-19T11:14:34;25.27;;;5.73;;
16892;SDS011;8563;52.242;9.098;2023-11-19T11:17:06;20.73;;;5.17;;
16892;SDS011;8563;52.242;9.098;2023-11-19T11:19:40;25.43;;;6.10;;
16892;SDS011;8563;52.242;9.098;2023-11-19T11:22:14;21.83;;;6.30;;
16892;SDS011;8563;52.242;9.098;2023-11-19T11:24:57;22.93;;;6.00;;
16892;SDS011;8563;52.242;9.098;2023-11-19T11:27:43;23.27;;;5.43;;
16892;SDS011;8563;52.242;9.098;2023-11-19T11:30:20;20.70;;;5.33;;
16892;SDS011;8563;52.242;9.098;2023-11-19T11:33:00;27.93;;;6.73;;
16892;SDS011;8563;52.242;9.098;2023-11-19T11:35:38;23.87;;;5.80;;
16892;SDS011;8563;52.242;9.098;2023-11-19T11:38:13;20.63;;;5.87;;
16892;SDS011;8563;52.242;9.098;2023-11-19T11:40:57;19.37;;;5.37;;
16892;SDS011;8563;52.242;9.098;2023-11-19T11:43:48;26.37;;;5.93;;
16892;SDS011;8563;52.242;9.098;2023-11-19T11:49:11;40.10;;;19.43;;
16892;SDS011;8563;52.242;9.098;2023-11-19T11:52:02;25.23;;;7.87;;
16892;SDS011;8563;52.242;9.098;2023-11-19T11:54:35;29.27;;;9.47;;
16892;SDS011;8563;52.242;9.098;2023-11-19T11:57:09;24.93;;;7.47;;
16892;SDS011;8563;52.242;9.098;2023-11-19T11:59:45;47.20;;;30.93;;
16892;SDS011;8563;52.242;9.098;2023-11-19T12:02:19;23.23;;;7.90;;
16892;SDS011;8563;52.242;9.098;2023-11-19T12:04:52;22.70;;;5.70;;
16892;SDS011;8563;52.242;9.098;2023-11-19T12:07:25;22.87;;;5.30;;
16892;SDS011;8563;52.242;9.098;2023-11-19T12:10:05;27.30;;;5.80;;
16892;SDS011;8563;52.242;9.098;2023-11-19T12:12:39;20.30;;;5.23;;
16892;SDS011;8563;52.242;9.098;2023-11-19T12:15:13;24.53;;;6.27;;
16892;SDS011;8563;52.242;9.098;2023-11-19T12:17:46;23.43;;;4.60;;
16892;SDS011;8563;52.242;9.098;2023-11-19T12:20:23;26.57;;;5.47;;
16892;SDS011;8563;52.242;9.098;2023-11-19T12:22:55;22.47;;;5.23;;
16892;SDS011;8563;52.242;9.098;2023-11-19T12:25:28;23.43;;;4.90;;
16892;SDS011;8563;52.242;9.098;2023-11-19T12:28:11;23.83;;;5.43;;
16892;SDS011;8563;52.242;9.098;2023-11-19T12:30:43;24.03;;;5.97;;
16892;SDS011;8563;52.242;9.098;2023-11-19T12:33:16;24.63;;;5.30;;
16892;SDS011;8563;52.242;9.098;2023-11-19T12:35:48;17.90;;;4.73;;
16892;SDS011;8563;52.242;9.098;2023-11-19T12:38:21;21.13;;;5.07;;
16892;SDS011;8563;52.242;9.098;2023-11-19T12:41:03;20.23;;;5.37;;
16892;SDS011;8563;52.242;9.098;2023-11-19T12:43:37;20.67;;;5.93;;
16892;SDS011;8563;52.242;9.098;2023-11-19T12:46:16;29.57;;;5.67;;
16892;SDS011;8563;52.242;9.098;2023-11-19T12:48:50;21.33;;;6.07;;
16892;SDS011;8563;52.242;9.098;2023-11-19T12:51:24;27.03;;;5.63;;
16892;SDS011;8563;52.242;9.098;2023-11-19T12:54:02;21.33;;;4.73;;
16892;SDS011;8563;52.242;9.098;2023-11-19T12:56:35;26.50;;;5.60;;
16892;SDS011;8563;52.242;9.098;2023-11-19T12:59:12;27.23;;;6.50;;
16892;SDS011;8563;52.242;9.098;2023-11-19T13:01:53;24.80;;;6.00;;
16892;SDS011;8563;52.242;9.098;2023-11-19T13:04:27;21.40;;;5.70;;
16892;SDS011;8563;52.242;9.098;2023-11-19T13:07:01;19.57;;;5.07;;
16892;SDS011;8563;52.242;9.098;2023-11-19T13:09:34;23.60;;;5.30;;
16892;SDS011;8563;52.242;9.098;2023-11-19T13:12:13;22.47;;;4.37;;
16892;SDS011;8563;52.242;9.098;2023-11-19T13:14:48;19.93;;;5.17;;
16892;SDS011;8563;52.242;9.098;2023-11-19T13:17:21;23.10;;;5.03;;
16892;SDS011;8563;52.242;9.098;2023-11-19T13:19:54;21.27;;;4.77;;
16892;SDS011;8563;52.242;9.098;2023-11-19T13:22:27;18.70;;;4.93;;
16892;SDS011;8563;52.242;9.098;2023-11-19T13:25:00;19.57;;;4.77;;
16892;SDS011;8563;52.242;9.098;2023-11-19T13:27:35;21.57;;;5.33;;
16892;SDS011;8563;52.242;9.098;2023-11-19T13:30:09;21.30;;;5.53;;
16892;SDS011;8563;52.242;9.098;2023-11-19T13:32:42;19.33;;;4.93;;
16892;SDS011;8563;52.242;9.098;2023-11-19T13:35:16;23.07;;;4.93;;
16892;SDS011;8563;52.242;9.098;2023-11-19T13:37:49;21.97;;;5.20;;
16892;SDS011;8563;52.242;9.098;2023-11-19T13:40:21;21.57;;;4.77;;
16892;SDS011;8563;52.242;9.098;2023-11-19T13:42:55;22.10;;;4.90;;
16892;SDS011;8563;52.242;9.098;2023-11-19T13:45:29;27.53;;;5.33;;
16892;SDS011;8563;52.242;9.098;2023-11-19T13:48:01;19.00;;;4.90;;
16892;SDS011;8563;52.242;9.098;2023-11-19T13:50:33;18.93;;;4.17;;
16892;SDS011;8563;52.242;9.098;2023-11-19T13:53:06;21.10;;;4.60;;
16892;SDS011;8563;52.242;9.098;2023-11-19T13:55:38;18.73;;;4.13;;
16892;SDS011;8563;52.242;9.098;2023-11-19T13:58:11;22.23;;;4.60;;
16892;SDS011;8563;52.242;9.098;2023-11-19T14:00:44;24.53;;;5.17;;
16892;SDS011;8563;52.242;9.098;2023-11-19T14:03:17;19.73;;;4.90;;
16892;SDS011;8563;52.242;9.098;2023-11-19T14:05:50;23.43;;;5.57;;
16892;SDS011;8563;52.242;9.098;2023-11-19T14:08:25;23.10;;;6.47;;
16892;SDS011;8563;52.242;9.098;2023-11-19T14:10:57;25.93;;;5.70;;
16892;SDS011;8563;52.242;9.098;2023-11-19T14:13:30;23.20;;;4.70;;
16892;SDS011;8563;52.242;9.098;2023-11-19T14:16:04;21.47;;;4.67;;
16892;SDS011;8563;52.242;9.098;2023-11-19T14:18:39;21.30;;;4.23;;
16892;SDS011;8563;52.242;9.098;2023-11-19T14:21:11;19.50;;;4.37;;
16892;SDS011;8563;52.242;9.098;2023-11-19T14:23:43;21.27;;;4.70;;
16892;SDS011;8563;52.242;9.098;2023-11-19T14:26:16;17.13;;;4.07;;
16892;SDS011;8563;52.242;9.098;2023-11-19T14:28:48;27.00;;;4.87;;
16892;SDS011;8563;52.242;9.098;2023-11-19T14:31:22;15.17;;;4.13;;
16892;SDS011;8563;52.242;9.098;2023-11-19T14:33:54;23.07;;;4.97;;
16892;SDS011;8563;52.242;9.098;2023-11-19T14:36:27;16.17;;;4.53;;
16892;SDS011;8563;52.242;9.098;2023-11-19T14:38:59;16.97;;;3.83;;
16892;SDS011;8563;52.242;9.098;2023-11-19T14:41:31;21.00;;;4.77;;
16892;SDS011;8563;52.242;9.098;2023-11-19T14:44:04;20.07;;;4.27;;
16892;SDS011;8563;52.242;9.098;2023-11-19T14:46:38;19.00;;;5.17;;
16892;SDS011;8563;52.242;9.098;2023-11-19T14:49:10;19.67;;;4.60;;
16892;SDS011;8563;52.242;9.098;2023-11-19T14:51:44;21.87;;;5.57;;
16892;SDS011;8563;52.242;9.098;2023-11-19T14:54:16;19.70;;;4.93;;
16892;SDS011;8563;52.242;9.098;2023-11-19T14:56:49;20.20;;;4.57;;
16892;SDS011;8563;52.242;9.098;2023-11-19T14:59:22;20.63;;;4.40;;
16892;SDS011;8563;52.242;9.098;2023-11-19T15:01:55;16.87;;;4.10;;
16892;SDS011;8563;52.242;9.098;2023-11-19T15:04:28;20.03;;;5.00;;
16892;SDS011;8563;52.242;9.098;2023-11-19T15:07:00;17.40;;;4.30;;
16892;SDS011;8563;52.242;9.098;2023-11-19T15:09:34;15.87;;;4.07;;
16892;SDS011;8563;52.242;9.098;2023-11-19T15:12:06;22.57;;;4.80;;
16892;SDS011;8563;52.242;9.098;2023-11-19T15:14:39;21.13;;;4.93;;
16892;SDS011;8563;52.242;9.098;2023-11-19T15:17:12;17.90;;;4.30;;
16892;SDS011;8563;52.242;9.098;2023-11-19T15:19:45;20.63;;;4.60;;
16892;SDS011;8563;52.242;9.098;2023-11-19T15:22:17;22.10;;;5.40;;
16892;SDS011;8563;52.242;9.098;2023-11-19T15:24:50;27.50;;;4.60;;
16892;SDS011;8563;52.242;9.098;2023-11-19T15:27:23;20.03;;;4.30;;
16892;SDS011;8563;52.242;9.098;2023-11-19T15:29:55;19.90;;;4.83;;